Time;durP1;ratioP1;P1;durP2;ratioP2;P2;SDS_P1;SDS_P2;PMS_P1;PMS_P2;Temp;Humidity;BMP_temperature;BMP_pressure;BME280_temperature;BME280_humidity;BME280_pressure;Samples;Min_cycle;Max_cycle;Signal;HPM_P1;HPM_P2
2023/09/06 00:00:32;;;;;;;0.90;0.85;;;22.80;70.90;;;;;;5109165;28;20020;-67
2023/09/06 00:02:59;;;;;;;0.80;0.80;;;22.80;70.90;;;;;;5100511;28;20225;-66
2023/09/06 00:05:26;;;;;;;0.60;0.57;;;22.70;71.00;;;;;;5108882;28;20027;-67
2023/09/06 00:07:52;;;;;;;1.05;0.95;;;22.70;71.00;;;;;;5108500;28;20031;-66
2023/09/06 00:10:18;;;;;;;1.13;0.90;;;22.70;71.00;;;;;;5109543;28;20031;-67
2023/09/06 00:12:45;;;;;;;0.50;0.50;;;22.70;71.60;;;;;;5101401;28;20085;-66
2023/09/06 00:15:11;;;;;;;0.90;0.90;;;22.60;71.00;;;;;;5110143;28;20032;-67
2023/09/06 00:17:38;;;;;;;2.25;1.20;;;22.60;71.10;;;;;;5107119;28;20104;-66
2023/09/06 00:20:20;;;;;;;0.85;0.70;;;22.50;71.30;;;;;;5109003;28;20024;-67
2023/09/06 00:22:57;;;;;;;1.35;1.05;;;22.50;71.30;;;;;;5108479;27;20080;-67
2023/09/06 00:25:24;;;;;;;1.10;0.70;;;22.50;71.30;;;;;;5109813;28;20027;-67
2023/09/06 00:27:50;;;;;;;1.90;1.17;;;22.40;71.30;;;;;;5108273;28;20070;-67
2023/09/06 00:30:19;;;;;;;0.98;0.88;;;22.40;71.20;;;;;;5108325;28;20128;-67
2023/09/06 00:32:46;;;;;;;0.98;0.90;;;22.40;71.20;;;;;;5106099;28;20084;-67
2023/09/06 00:35:12;;;;;;;1.27;0.82;;;22.40;71.30;;;;;;5107345;28;20035;-67
2023/09/06 00:37:40;;;;;;;1.52;0.82;;;22.30;71.20;;;;;;5104724;28;20046;-67
2023/09/06 00:40:17;;;;;;;1.50;1.20;;;22.30;71.30;;;;;;5106154;28;20031;-67
2023/09/06 00:42:45;;;;;;;0.93;0.73;;;22.30;71.40;;;;;;5107206;28;20092;-67
2023/09/06 00:45:10;;;;;;;0.52;0.52;;;22.20;71.40;;;;;;5108893;28;20421;-67
2023/09/06 00:47:36;;;;;;;1.48;0.70;;;22.20;71.60;;;;;;5104845;28;20080;-66
2023/09/06 00:50:03;;;;;;;1.10;1.00;;;22.20;71.60;;;;;;5107778;28;20070;-66
2023/09/06 00:52:29;;;;;;;0.88;0.88;;;22.20;71.60;;;;;;5109263;28;20024;-66
2023/09/06 00:54:55;;;;;;;2.50;1.38;;;22.20;71.60;;;;;;5110206;28;20035;-66
2023/09/06 00:57:21;;;;;;;0.85;0.85;;;22.20;71.60;;;;;;5104986;28;20092;-66
2023/09/06 00:59:50;;;;;;;2.63;0.90;;;22.10;71.50;;;;;;5107370;28;20391;-66
2023/09/06 01:02:16;;;;;;;1.38;1.00;;;22.10;71.50;;;;;;5106156;28;20035;-66
2023/09/06 01:04:41;;;;;;;1.00;0.82;;;22.10;71.50;;;;;;5104954;28;20024;-66
2023/09/06 01:07:09;;;;;;;0.93;0.70;;;22.00;71.60;;;;;;5105803;28;20039;-66
2023/09/06 01:09:36;;;;;;;0.98;0.80;;;22.00;71.60;;;;;;5108488;28;20452;-66
2023/09/06 01:12:01;;;;;;;1.35;0.90;;;22.00;71.60;;;;;;5109032;28;20088;-66
2023/09/06 01:14:27;;;;;;;1.17;1.00;;;21.90;71.60;;;;;;5108596;28;20028;-66
2023/09/06 01:16:55;;;;;;;0.82;0.75;;;21.90;71.70;;;;;;5108307;28;20535;-66
2023/09/06 01:19:25;;;;;;;0.70;0.70;;;21.90;71.80;;;;;;5108274;28;20027;-67
2023/09/06 01:22:09;;;;;;;1.08;0.98;;;21.80;71.80;;;;;;5105751;28;20038;-68
2023/09/06 01:24:36;;;;;;;2.63;1.38;;;21.80;71.80;;;;;;5108446;28;20031;-67
2023/09/06 01:27:04;;;;;;;1.27;0.80;;;21.70;71.80;;;;;;5108481;28;20069;-66
2023/09/06 01:29:31;;;;;;;1.38;0.88;;;21.70;71.80;;;;;;5107093;28;20024;-66
2023/09/06 01:31:56;;;;;;;1.50;0.70;;;21.70;71.80;;;;;;5106396;28;20161;-66
2023/09/06 01:34:22;;;;;;;0.73;0.70;;;21.60;71.80;;;;;;5107960;28;20522;-66
2023/09/06 01:36:48;;;;;;;0.75;0.70;;;21.60;71.80;;;;;;5105814;28;20136;-66
2023/09/06 01:39:13;;;;;;;0.80;0.80;;;21.60;71.90;;;;;;5107528;28;20024;-66
2023/09/06 01:41:39;;;;;;;0.70;0.70;;;21.50;71.90;;;;;;5107461;28;20068;-67
2023/09/06 01:44:05;;;;;;;1.25;0.75;;;21.50;71.90;;;;;;5107356;28;20516;-67
2023/09/06 01:46:30;;;;;;;1.13;0.80;;;21.50;72.00;;;;;;5108499;28;20028;-67
2023/09/06 01:48:59;;;;;;;1.15;0.85;;;21.40;72.60;;;;;;5108291;28;20062;-67
2023/09/06 01:51:24;;;;;;;0.90;0.90;;;21.40;72.00;;;;;;5103687;28;20034;-67
2023/09/06 01:53:50;;;;;;;1.08;0.70;;;21.40;72.10;;;;;;5108604;28;20110;-66
2023/09/06 01:56:16;;;;;;;1.08;0.70;;;21.40;72.00;;;;;;5100509;28;20036;-66
2023/09/06 01:58:42;;;;;;;2.30;1.00;;;21.30;72.00;;;;;;5112432;28;20038;-66
2023/09/06 02:01:09;;;;;;;1.27;0.82;;;21.30;72.20;;;;;;5111422;28;20042;-67
2023/09/06 02:03:35;;;;;;;1.13;1.00;;;21.30;72.30;;;;;;5105886;28;20039;-67
2023/09/06 02:06:01;;;;;;;1.48;0.82;;;21.30;72.30;;;;;;5112971;28;20027;-67
2023/09/06 02:08:27;;;;;;;0.85;0.63;;;21.20;72.40;;;;;;5111597;27;20111;-66
2023/09/06 02:10:52;;;;;;;1.08;0.70;;;21.20;72.40;;;;;;5111928;28;20558;-66
2023/09/06 02:13:18;;;;;;;1.77;0.93;;;21.20;72.40;;;;;;5110471;27;20420;-66
2023/09/06 02:15:44;;;;;;;1.20;1.08;;;21.10;72.40;;;;;;5112260;27;20036;-67
2023/09/06 02:18:10;;;;;;;1.42;0.93;;;21.10;72.50;;;;;;5107700;27;20020;-67
2023/09/06 02:20:39;;;;;;;0.60;0.60;;;21.10;72.40;;;;;;5111469;28;20123;-67
2023/09/06 02:23:05;;;;;;;1.05;0.80;;;21.10;72.50;;;;;;5112016;28;20112;-66
2023/09/06 02:25:32;;;;;;;0.77;0.70;;;21.00;72.50;;;;;;5107007;28;20380;-66
2023/09/06 02:28:05;;;;;;;1.23;0.80;;;21.00;72.40;;;;;;5107670;27;20031;-66
2023/09/06 02:30:37;;;;;;;3.03;1.17;;;21.00;72.60;;;;;;5109024;27;20036;-66
2023/09/06 02:33:04;;;;;;;0.85;0.85;;;20.90;72.60;;;;;;5109531;28;20340;-67
2023/09/06 02:35:30;;;;;;;0.60;0.57;;;20.90;72.60;;;;;;5112366;28;20027;-67
2023/09/06 02:37:56;;;;;;;2.38;0.80;;;20.80;72.60;;;;;;5105767;28;20027;-66
2023/09/06 02:40:22;;;;;;;1.50;0.73;;;20.80;72.60;;;;;;5110250;28;20040;-66
2023/09/06 02:42:49;;;;;;;2.05;0.93;;;20.80;72.70;;;;;;5108523;28;20024;-66
2023/09/06 02:45:15;;;;;;;1.45;0.82;;;20.80;72.80;;;;;;5106370;27;20039;-67
2023/09/06 02:47:48;;;;;;;1.48;0.90;;;20.80;72.90;;;;;;5104177;28;20032;-66
2023/09/06 02:50:23;;;;;;;0.98;0.90;;;20.70;72.80;;;;;;5109901;28;20023;-67
2023/09/06 02:52:52;;;;;;;1.80;0.95;;;20.70;73.00;;;;;;5102324;28;20028;-66
2023/09/06 02:55:18;;;;;;;0.95;0.77;;;20.70;73.00;;;;;;5109559;28;20020;-66
2023/09/06 02:57:44;;;;;;;1.23;0.60;;;20.70;73.00;;;;;;5110012;28;20133;-66
2023/09/06 03:02:48;;;;;;;1.15;0.95;;;20.60;73.10;;;;;;5109562;28;20122;-66
2023/09/06 03:05:17;;;;;;;0.80;0.75;;;20.60;73.10;;;;;;5109265;28;20114;-67
2023/09/06 03:07:46;;;;;;;1.20;0.93;;;20.60;73.10;;;;;;5110946;28;20019;-66
2023/09/06 03:10:11;;;;;;;0.98;0.90;;;20.60;73.10;;;;;;5109618;28;20043;-66
2023/09/06 03:12:41;;;;;;;1.02;0.73;;;20.50;73.10;;;;;;5109988;28;20027;-66
2023/09/06 03:15:08;;;;;;;1.40;0.70;;;20.50;73.20;;;;;;5109000;28;20028;-66
2023/09/06 03:17:36;;;;;;;1.08;0.73;;;20.50;73.20;;;;;;5101959;28;20032;-67
2023/09/06 03:20:18;;;;;;;0.82;0.70;;;20.50;73.20;;;;;;5102884;28;20073;-66
2023/09/06 03:22:46;;;;;;;;;;;20.40;73.20;;;;;;5111106;28;20038;-66
2023/09/06 03:25:14;;;;;;;1.02;0.90;;;20.40;73.50;;;;;;5106472;28;20006;-66
2023/09/06 03:27:41;;;;;;;0.77;0.77;;;20.40;73.60;;;;;;5107738;28;20027;-67
2023/09/06 03:30:08;;;;;;;0.70;0.70;;;20.40;73.60;;;;;;5110284;28;20034;-66
2023/09/06 03:32:34;;;;;;;1.42;0.90;;;20.30;73.50;;;;;;5108290;27;20282;-66
2023/09/06 03:35:00;;;;;;;0.73;0.70;;;20.40;73.50;;;;;;5110098;28;20024;-66
2023/09/06 03:37:28;;;;;;;1.55;1.25;;;20.30;73.60;;;;;;5105830;27;20706;-67
2023/09/06 03:39:55;;;;;;;1.10;0.98;;;20.30;73.60;;;;;;5108315;28;20031;-66
2023/09/06 03:42:23;;;;;;;1.92;1.05;;;20.30;73.60;;;;;;5107169;28;20039;-66
2023/09/06 03:44:49;;;;;;;0.80;0.70;;;20.30;73.60;;;;;;5109112;28;20546;-67
2023/09/06 03:47:16;;;;;;;1.20;0.95;;;20.20;73.50;;;;;;5109311;28;20101;-66
2023/09/06 03:49:43;;;;;;;1.15;0.90;;;20.20;73.60;;;;;;5107805;28;20042;-66
2023/09/06 03:52:16;;;;;;;1.45;0.80;;;20.20;73.60;;;;;;5110041;28;20028;-66
2023/09/06 03:54:42;;;;;;;0.75;0.63;;;20.20;73.60;;;;;;5106444;27;20058;-66
2023/09/06 03:57:07;;;;;;;2.33;1.27;;;20.20;73.70;;;;;;5107274;28;20482;-66
2023/09/06 03:59:38;;;;;;;0.60;0.60;;;20.20;73.60;;;;;;5105371;27;20031;-66
2023/09/06 04:02:08;;;;;;;1.15;0.95;;;20.10;73.60;;;;;;5072783;28;20031;-67
2023/09/06 04:04:34;;;;;;;0.57;0.57;;;20.10;73.70;;;;;;5102943;28;20042;-67
2023/09/06 04:07:02;;;;;;;1.27;0.90;;;20.10;73.70;;;;;;5109206;28;20043;-66
2023/09/06 04:09:32;;;;;;;1.00;0.90;;;20.10;73.80;;;;;;5108309;28;20034;-66
2023/09/06 04:11:58;;;;;;;0.80;0.80;;;20.10;73.80;;;;;;5107009;28;20563;-67
2023/09/06 04:14:24;;;;;;;0.73;0.73;;;20.10;73.80;;;;;;5107787;28;20032;-66
2023/09/06 04:16:50;;;;;;;1.13;0.80;;;20.10;73.80;;;;;;5109367;28;20034;-66
2023/09/06 04:19:16;;;;;;;1.23;1.13;;;20.00;73.80;;;;;;5108879;28;20039;-65
2023/09/06 04:21:41;;;;;;;0.68;0.68;;;20.00;73.90;;;;;;5109026;28;20107;-66
2023/09/06 04:24:07;;;;;;;0.55;0.55;;;20.00;73.90;;;;;;5108023;28;20044;-66
2023/09/06 04:26:34;;;;;;;1.33;1.23;;;20.00;73.90;;;;;;5107260;28;20070;-66
2023/09/06 04:29:03;;;;;;;1.27;1.05;;;19.90;73.90;;;;;;5104263;28;20428;-66
2023/09/06 04:31:30;;;;;;;1.10;1.00;;;19.90;74.10;;;;;;5108053;28;20467;-66
2023/09/06 04:33:58;;;;;;;0.95;0.85;;;19.90;73.90;;;;;;5105553;28;20034;-67
2023/09/06 04:36:23;;;;;;;1.10;1.00;;;19.90;74.10;;;;;;5108606;28;20032;-66
2023/09/06 04:38:49;;;;;;;2.00;1.15;;;19.90;74.20;;;;;;5105794;28;20261;-66
2023/09/06 04:41:15;;;;;;;1.50;0.82;;;19.80;74.20;;;;;;5108634;28;20436;-67
2023/09/06 04:43:40;;;;;;;1.15;0.70;;;19.80;74.30;;;;;;5105260;28;20027;-66
2023/09/06 04:46:06;;;;;;;5.43;1.30;;;19.80;74.30;;;;;;5100542;28;20038;-67
2023/09/06 04:48:32;;;;;;;2.67;1.05;;;19.80;74.30;;;;;;5103120;28;20077;-67
2023/09/06 04:50:59;;;;;;;0.65;0.65;;;19.80;74.30;;;;;;5104738;28;20028;-67
2023/09/06 04:53:25;;;;;;;1.30;0.90;;;19.70;74.20;;;;;;5106118;28;20027;-66
2023/09/06 04:55:52;;;;;;;1.20;1.08;;;19.70;74.30;;;;;;5100443;28;20088;-66
2023/09/06 04:58:19;;;;;;;1.17;1.02;;;19.70;74.30;;;;;;5105502;28;20059;-66
2023/09/06 05:00:47;;;;;;;0.73;0.73;;;19.70;74.50;;;;;;5106320;28;20028;-66
2023/09/06 05:03:17;;;;;;;4.28;1.00;;;19.70;74.50;;;;;;5105892;28;20027;-67
2023/09/06 05:05:47;;;;;;;0.90;0.75;;;19.60;74.50;;;;;;5103933;28;20502;-66
2023/09/06 05:08:14;;;;;;;1.05;0.95;;;19.60;74.50;;;;;;5103812;28;20028;-66
2023/09/06 05:10:39;;;;;;;0.57;0.57;;;19.60;74.50;;;;;;5105837;28;20088;-66
2023/09/06 05:13:07;;;;;;;1.95;1.05;;;19.60;74.50;;;;;;5106356;28;20024;-66
2023/09/06 05:15:37;;;;;;;0.90;0.80;;;19.60;74.50;;;;;;5101180;28;20029;-66
2023/09/06 05:18:05;;;;;;;1.40;0.85;;;19.60;74.70;;;;;;5102355;28;20068;-66
2023/09/06 05:20:35;;;;;;;0.75;0.73;;;19.60;74.70;;;;;;5108083;28;20024;-66
2023/09/06 05:23:03;;;;;;;0.93;0.93;;;19.60;74.70;;;;;;5109572;28;20016;-67
2023/09/06 05:25:30;;;;;;;1.48;0.95;;;19.60;74.80;;;;;;5108405;28;20138;-66
2023/09/06 05:28:04;;;;;;;0.77;0.70;;;19.60;74.80;;;;;;5102338;28;20378;-66
2023/09/06 05:30:31;;;;;;;0.85;0.80;;;19.70;74.80;;;;;;5106309;28;20111;-66
2023/09/06 05:32:57;;;;;;;1.45;0.90;;;19.70;74.90;;;;;;5110002;28;20023;-66
2023/09/06 05:35:24;;;;;;;2.13;1.20;;;19.70;74.90;;;;;;5110656;28;20633;-66
2023/09/06 05:37:50;;;;;;;1.05;0.63;;;19.80;74.90;;;;;;5105682;28;20517;-66
2023/09/06 05:40:22;;;;;;;1.00;0.80;;;19.80;74.90;;;;;;5111619;28;20569;-66
2023/09/06 05:42:48;;;;;;;1.20;1.10;;;19.80;74.90;;;;;;5111002;28;20039;-66
2023/09/06 05:45:13;;;;;;;1.00;0.63;;;19.80;74.90;;;;;;5112750;28;20023;-66
2023/09/06 05:47:39;;;;;;;1.40;1.30;;;19.90;74.90;;;;;;5110862;28;20407;-66
2023/09/06 05:50:06;;;;;;;0.75;0.68;;;19.90;74.90;;;;;;5111143;28;20038;-66
2023/09/06 05:52:32;;;;;;;2.95;1.00;;;19.90;74.80;;;;;;5107378;27;20096;-66
2023/09/06 05:54:58;;;;;;;1.25;0.70;;;20.00;74.90;;;;;;5113441;28;20058;-66
2023/09/06 05:57:24;;;;;;;1.10;1.00;;;20.00;74.90;;;;;;5111073;28;20532;-66
2023/09/06 05:59:50;;;;;;;1.08;0.75;;;20.10;74.90;;;;;;5112293;28;20027;-66
2023/09/06 06:02:17;;;;;;;1.20;0.95;;;20.10;74.90;;;;;;5112184;28;20486;-66
2023/09/06 06:04:45;;;;;;;1.02;0.93;;;20.20;75.00;;;;;;5112396;28;20031;-67
2023/09/06 06:07:16;;;;;;;1.30;1.00;;;20.30;75.00;;;;;;5112197;28;20027;-66
2023/09/06 06:09:43;;;;;;;1.25;1.00;;;20.40;75.00;;;;;;5106788;28;20411;-67
2023/09/06 06:12:10;;;;;;;1.15;1.05;;;20.40;74.90;;;;;;5112324;28;20157;-67
2023/09/06 06:14:39;;;;;;;1.20;1.00;;;20.50;74.90;;;;;;5112021;28;20122;-67
2023/09/06 06:17:05;;;;;;;1.65;1.20;;;20.60;74.90;;;;;;5106142;28;20020;-67
2023/09/06 06:19:37;;;;;;;1.13;0.80;;;20.60;74.80;;;;;;5111869;28;20030;-66
2023/09/06 06:22:03;;;;;;;1.35;1.08;;;20.80;74.80;;;;;;5109261;28;20023;-66
2023/09/06 06:24:35;;;;;;;1.30;1.20;;;20.80;74.80;;;;;;5111979;28;20126;-66
2023/09/06 06:27:01;;;;;;;4.22;1.40;;;20.90;74.80;;;;;;5105803;28;20386;-66
2023/09/06 06:29:27;;;;;;;0.98;0.70;;;20.90;74.80;;;;;;5109965;28;20028;-66
2023/09/06 06:31:52;;;;;;;1.05;0.90;;;20.90;74.70;;;;;;5111721;28;20023;-66
2023/09/06 06:34:19;;;;;;;1.13;0.60;;;21.00;74.70;;;;;;5111626;28;20038;-66
2023/09/06 06:36:46;;;;;;;2.65;1.20;;;21.10;74.60;;;;;;5109510;28;20028;-66
2023/09/06 06:39:12;;;;;;;1.27;1.00;;;21.20;74.50;;;;;;5111448;28;20027;-67
2023/09/06 06:41:38;;;;;;;1.98;1.48;;;21.30;74.30;;;;;;5110570;28;20035;-66
2023/09/06 06:44:05;;;;;;;1.23;1.10;;;21.40;74.20;;;;;;5107100;28;20043;-66
2023/09/06 06:46:33;;;;;;;2.38;1.05;;;21.50;74.00;;;;;;5110728;27;20425;-66
2023/09/06 06:49:00;;;;;;;1.10;0.73;;;21.60;73.80;;;;;;5105200;27;20488;-66
2023/09/06 06:51:38;;;;;;;1.40;1.25;;;21.60;73.70;;;;;;5108816;28;20053;-66
2023/09/06 06:54:08;;;;;;;0.98;0.88;;;21.70;73.60;;;;;;5106777;27;20039;-66
2023/09/06 06:56:35;;;;;;;1.33;1.10;;;21.70;73.70;;;;;;5104536;27;20055;-66
2023/09/06 06:59:02;;;;;;;0.75;0.75;;;21.80;73.60;;;;;;5110196;28;20393;-66
2023/09/06 07:01:28;;;;;;;1.67;1.13;;;21.80;73.60;;;;;;5110329;28;20112;-64
2023/09/06 07:03:55;;;;;;;1.67;1.30;;;21.90;73.50;;;;;;5109984;28;20027;-65
2023/09/06 07:06:24;;;;;;;4.15;1.15;;;21.90;73.20;;;;;;5109749;28;20024;-66
2023/09/06 07:08:51;;;;;;;1.00;0.90;;;22.00;73.10;;;;;;5108922;27;20486;-67
2023/09/06 07:11:21;;;;;;;1.05;0.80;;;22.10;73.00;;;;;;5106490;28;20032;-66
2023/09/06 07:13:48;;;;;;;2.17;1.10;;;22.20;72.90;;;;;;5110203;28;20039;-65
2023/09/06 07:16:18;;;;;;;0.90;0.70;;;22.20;72.80;;;;;;5091725;28;20024;-66
2023/09/06 07:18:45;;;;;;;2.80;1.23;;;22.30;72.80;;;;;;5107798;28;20038;-64
2023/09/06 07:21:12;;;;;;;1.17;1.00;;;22.40;72.70;;;;;;5110922;28;20055;-65
2023/09/06 07:23:38;;;;;;;1.20;0.65;;;22.40;72.50;;;;;;5109898;28;20031;-67
2023/09/06 07:26:04;;;;;;;1.02;0.90;;;22.50;72.20;;;;;;5092827;28;20095;-68
2023/09/06 07:28:41;;;;;;;0.75;0.75;;;22.60;72.20;;;;;;5109576;28;20027;-69
2023/09/06 07:31:07;;;;;;;1.15;1.05;;;22.70;72.10;;;;;;5107202;28;20027;-68
2023/09/06 07:33:33;;;;;;;1.35;1.10;;;22.70;72.10;;;;;;5110270;28;20034;-66
2023/09/06 07:35:59;;;;;;;1.60;1.00;;;22.70;71.90;;;;;;5106089;28;20110;-68
2023/09/06 07:38:25;;;;;;;0.80;0.80;;;22.80;71.80;;;;;;5108992;28;20111;-68
2023/09/06 07:41:02;;;;;;;1.00;0.90;;;22.80;71.70;;;;;;5104102;27;20723;-67
2023/09/06 07:43:29;;;;;;;1.45;1.23;;;22.90;71.70;;;;;;5103024;27;20489;-66
2023/09/06 07:45:58;;;;;;;0.90;0.90;;;22.90;71.60;;;;;;5110377;28;20019;-67
2023/09/06 07:48:29;;;;;;;5.63;1.27;;;23.00;71.40;;;;;;5104112;27;20502;-67
2023/09/06 07:50:56;;;;;;;0.98;0.85;;;23.10;71.40;;;;;;5107825;27;20107;-67
2023/09/06 07:53:24;;;;;;;2.05;1.13;;;23.20;71.20;;;;;;5096050;27;20035;-66
2023/09/06 07:55:57;;;;;;;1.77;0.90;;;23.20;71.10;;;;;;5100258;28;20104;-66
2023/09/06 07:58:23;;;;;;;1.58;0.90;;;23.30;71.10;;;;;;5104895;28;20034;-66
2023/09/06 08:00:50;;;;;;;1.13;0.70;;;23.40;70.90;;;;;;5102656;27;20103;-66
2023/09/06 08:03:15;;;;;;;0.80;0.80;;;23.40;70.70;;;;;;5108516;27;20087;-67
2023/09/06 08:05:41;;;;;;;1.10;0.95;;;23.60;70.70;;;;;;5111076;27;20035;-66
2023/09/06 08:08:09;;;;;;;1.75;1.08;;;23.60;70.60;;;;;;5107272;27;20089;-66
2023/09/06 08:10:36;;;;;;;1.33;0.70;;;23.70;70.50;;;;;;5102606;27;20047;-67
2023/09/06 08:13:03;;;;;;;1.25;0.95;;;23.80;70.40;;;;;;5104404;27;20027;-66
2023/09/06 08:15:30;;;;;;;1.00;0.90;;;23.90;70.20;;;;;;5111643;27;20039;-66
2023/09/06 08:17:56;;;;;;;0.88;0.77;;;23.90;70.20;;;;;;5108234;27;20157;-66
2023/09/06 08:20:22;;;;;;;1.33;1.17;;;24.00;69.70;;;;;;5105989;28;20110;-66
2023/09/06 08:22:47;;;;;;;1.48;0.77;;;24.10;69.60;;;;;;5103600;28;20031;-67
2023/09/06 08:25:14;;;;;;;0.85;0.80;;;24.20;69.50;;;;;;5107930;27;20031;-66
2023/09/06 08:27:40;;;;;;;1.92;0.95;;;24.30;69.50;;;;;;5105270;28;20105;-66
2023/09/06 08:30:10;;;;;;;1.30;1.08;;;24.30;69.20;;;;;;5108470;28;20051;-67
2023/09/06 08:32:40;;;;;;;1.02;0.90;;;24.40;69.70;;;;;;5105922;28;20359;-66
2023/09/06 08:35:11;;;;;;;1.05;0.95;;;24.50;68.80;;;;;;5104723;28;20071;-66
2023/09/06 08:37:37;;;;;;;2.58;0.73;;;24.70;68.70;;;;;;5101434;28;20615;-66
2023/09/06 08:40:07;;;;;;;0.80;0.70;;;24.80;68.40;;;;;;5105294;28;20027;-66
2023/09/06 08:42:34;;;;;;;2.38;1.20;;;24.80;68.00;;;;;;5105295;28;20074;-66
2023/09/06 08:45:01;;;;;;;1.67;1.20;;;24.90;67.50;;;;;;5107104;28;20042;-66
2023/09/06 08:47:28;;;;;;;1.17;0.80;;;25.00;67.50;;;;;;5100421;28;20027;-66
2023/09/06 08:49:55;;;;;;;1.85;1.30;;;25.00;67.20;;;;;;5101919;28;20040;-67
2023/09/06 08:52:21;;;;;;;1.30;1.20;;;25.10;66.90;;;;;;5098991;27;20118;-67
2023/09/06 08:54:50;;;;;;;1.70;1.00;;;25.10;66.60;;;;;;5106832;27;20035;-66
2023/09/06 08:57:17;;;;;;;0.82;0.77;;;25.20;66.40;;;;;;5102730;27;20037;-67
2023/09/06 08:59:44;;;;;;;2.05;1.10;;;25.30;66.10;;;;;;5099927;28;20027;-67
2023/09/06 09:02:12;;;;;;;0.88;0.82;;;25.40;65.90;;;;;;5105787;28;20020;-67
2023/09/06 09:04:42;;;;;;;1.20;1.10;;;25.50;65.90;;;;;;5104964;28;20089;-68
2023/09/06 09:07:12;;;;;;;1.38;1.13;;;25.60;65.80;;;;;;5110745;27;20027;-69
2023/09/06 09:09:59;;;;;;;1.13;0.93;;;25.70;65.50;;;;;;5111424;27;20024;-66
2023/09/06 09:12:26;;;;;;;1.23;0.90;;;25.80;64.90;;;;;;5114302;27;20035;-67
2023/09/06 09:14:54;;;;;;;1.17;1.08;;;25.80;64.20;;;;;;5114597;27;20035;-68
2023/09/06 09:17:21;;;;;;;1.88;0.93;;;25.90;63.70;;;;;;5105775;27;20035;-67
2023/09/06 09:19:50;;;;;;;0.73;0.73;;;26.10;63.70;;;;;;5113325;28;20462;-66
2023/09/06 09:22:30;;;;;;;2.33;0.80;;;26.20;63.90;;;;;;5111031;27;20023;-66
2023/09/06 09:25:04;;;;;;;0.73;0.70;;;26.30;63.00;;;;;;5110897;27;20039;-64
2023/09/06 09:27:32;;;;;;;2.80;1.10;;;26.30;62.30;;;;;;5107201;27;20031;-65
2023/09/06 09:30:01;;;;;;;1.27;0.98;;;26.40;62.10;;;;;;5111228;27;20023;-65
2023/09/06 09:32:30;;;;;;;1.65;1.00;;;26.50;61.90;;;;;;5110738;27;20028;-65
2023/09/06 09:34:56;;;;;;;1.33;1.00;;;26.60;61.80;;;;;;5111609;27;20422;-65
2023/09/06 09:37:22;;;;;;;1.17;1.00;;;26.70;61.30;;;;;;5109024;27;20035;-65
2023/09/06 09:39:48;;;;;;;1.00;0.90;;;26.90;61.60;;;;;;5115062;27;20024;-66
2023/09/06 09:42:14;;;;;;;0.60;0.57;;;27.10;61.50;;;;;;5114586;27;20073;-66
2023/09/06 09:44:41;;;;;;;3.42;1.35;;;27.30;61.30;;;;;;5115689;27;20039;-66
2023/09/06 09:47:13;;;;;;;1.15;1.05;;;27.40;61.10;;;;;;5115185;27;20425;-66
2023/09/06 09:49:41;;;;;;;1.58;1.20;;;27.50;60.70;;;;;;5112226;27;20023;-66
2023/09/06 09:52:17;;;;;;;1.70;1.08;;;27.60;60.60;;;;;;5111549;27;20037;-66
2023/09/06 09:54:47;;;;;;;1.05;0.93;;;27.60;59.80;;;;;;5110276;27;20026;-66
2023/09/06 09:57:13;;;;;;;1.13;0.93;;;27.70;60.00;;;;;;5108901;28;20107;-67
2023/09/06 09:59:40;;;;;;;1.00;0.90;;;27.90;60.00;;;;;;5109038;27;20038;-66
2023/09/06 10:02:15;;;;;;;1.30;1.00;;;28.00;60.10;;;;;;5117867;27;20383;-65
2023/09/06 10:04:44;;;;;;;1.55;0.85;;;28.10;60.00;;;;;;5105232;27;20111;-66
2023/09/06 10:07:11;;;;;;;0.60;0.50;;;28.20;59.90;;;;;;5111595;27;20024;-66
2023/09/06 10:09:42;;;;;;;1.33;1.05;;;28.40;60.00;;;;;;5102152;27;20016;-66
2023/09/06 10:12:11;;;;;;;1.85;1.05;;;28.60;59.60;;;;;;5109554;27;20118;-66
2023/09/06 10:14:41;;;;;;;0.88;0.88;;;28.70;59.70;;;;;;5106835;27;20046;-66
2023/09/06 10:17:11;;;;;;;2.03;1.33;;;28.80;59.40;;;;;;5106419;28;20028;-65
2023/09/06 10:19:38;;;;;;;0.73;0.70;;;29.00;59.00;;;;;;5110824;27;20059;-66
2023/09/06 10:22:07;;;;;;;1.30;0.98;;;29.10;59.10;;;;;;5107649;27;20055;-64
2023/09/06 10:24:35;;;;;;;1.67;1.00;;;29.20;58.30;;;;;;5106576;27;20077;-64
2023/09/06 10:27:02;;;;;;;1.50;1.13;;;29.30;58.20;;;;;;5115161;27;20448;-64
2023/09/06 10:29:30;;;;;;;2.33;1.38;;;29.40;58.50;;;;;;5100141;27;20077;-65
2023/09/06 10:32:04;;;;;;;0.90;0.77;;;29.60;58.20;;;;;;5103184;28;20073;-64
2023/09/06 10:34:33;;;;;;;0.82;0.80;;;29.70;57.90;;;;;;5101767;27;20020;-64
2023/09/06 10:37:01;;;;;;;0.85;0.70;;;29.90;57.60;;;;;;5102009;27;20027;-65
2023/09/06 10:39:28;;;;;;;1.08;0.70;;;30.10;57.50;;;;;;5111311;28;20492;-64
2023/09/06 10:42:27;;;;;;;0.88;0.77;;;30.20;57.20;;;;;;5106348;28;20112;-64
2023/09/06 10:44:55;;;;;;;1.20;1.10;;;30.40;56.10;;;;;;5076952;28;20550;-64
2023/09/06 10:47:29;;;;;;;1.08;0.98;;;30.50;55.90;;;;;;5111225;27;20032;-65
2023/09/06 10:50:08;;;;;;;0.88;0.77;;;30.50;55.60;;;;;;5111473;27;20031;-65
2023/09/06 10:52:42;;;;;;;1.42;0.90;;;30.60;55.70;;;;;;5110237;28;20047;-65
2023/09/06 10:55:18;;;;;;;1.33;0.90;;;30.70;55.60;;;;;;5109554;28;20038;-65
2023/09/06 10:58:02;;;;;;;0.82;0.80;;;30.80;54.90;;;;;;5104103;27;20031;-65
2023/09/06 11:00:34;;;;;;;1.38;1.05;;;30.90;54.30;;;;;;5104611;28;20393;-64
2023/09/06 11:03:21;;;;;;;0.70;0.60;;;31.00;53.10;;;;;;5111757;27;20028;-65
2023/09/06 11:05:52;;;;;;;0.98;0.70;;;31.20;53.80;;;;;;5105726;27;20445;-64
2023/09/06 11:08:26;;;;;;;0.70;0.70;;;31.40;53.20;;;;;;5109849;27;20046;-65
2023/09/06 11:10:57;;;;;;;1.30;1.08;;;31.60;52.00;;;;;;5110029;27;20039;-65
2023/09/06 11:13:29;;;;;;;0.93;0.80;;;31.70;51.80;;;;;;5104940;28;20576;-65
2023/09/06 11:15:55;;;;;;;0.70;0.70;;;31.90;52.10;;;;;;5105174;28;20020;-65
2023/09/06 11:18:21;;;;;;;1.10;0.95;;;32.00;52.20;;;;;;5104893;28;20340;-66
2023/09/06 11:20:48;;;;;;;0.98;0.90;;;32.20;51.40;;;;;;5114746;27;21077;-66
2023/09/06 11:23:14;;;;;;;1.05;0.90;;;32.20;51.70;;;;;;5102924;28;20027;-65
2023/09/06 11:25:40;;;;;;;1.98;1.15;;;32.30;51.40;;;;;;5109644;28;20062;-65
2023/09/06 11:28:17;;;;;;;2.45;1.10;;;32.40;51.10;;;;;;5108237;28;20024;-66
2023/09/06 11:30:47;;;;;;;1.10;0.95;;;32.50;51.10;;;;;;5110222;28;20023;-65
2023/09/06 11:33:17;;;;;;;0.80;0.80;;;32.70;51.00;;;;;;5107272;28;20030;-65
2023/09/06 11:35:55;;;;;;;1.00;0.90;;;32.80;48.80;;;;;;5110553;28;20034;-65
2023/09/06 11:38:28;;;;;;;1.20;1.20;;;32.70;48.70;;;;;;5106342;27;20845;-64
2023/09/06 11:40:56;;;;;;;1.23;1.00;;;32.70;48.50;;;;;;5108937;28;20104;-65
2023/09/06 11:43:24;;;;;;;1.88;1.30;;;32.80;48.20;;;;;;5110492;28;20394;-64
2023/09/06 11:45:54;;;;;;;1.10;1.00;;;33.00;48.50;;;;;;5111026;27;20042;-65
2023/09/06 11:48:27;;;;;;;1.25;1.13;;;33.10;48.40;;;;;;5104307;28;20028;-65
2023/09/06 11:51:01;;;;;;;1.02;0.98;;;33.20;48.90;;;;;;5104208;28;20027;-64
2023/09/06 11:53:28;;;;;;;1.63;0.93;;;33.40;49.30;;;;;;5107817;28;20030;-64
2023/09/06 11:55:59;;;;;;;1.00;0.90;;;33.50;49.10;;;;;;5111088;28;20031;-66
2023/09/06 11:58:27;;;;;;;1.50;1.08;;;33.60;48.70;;;;;;5107728;28;20429;-65
2023/09/06 12:00:55;;;;;;;1.10;1.00;;;33.70;48.60;;;;;;5108588;28;20115;-65
2023/09/06 12:03:29;;;;;;;0.70;0.70;;;33.80;48.50;;;;;;5109059;28;20039;-65
2023/09/06 12:06:00;;;;;;;0.85;0.77;;;33.80;48.50;;;;;;5105327;28;20027;-65
2023/09/06 12:08:29;;;;;;;1.42;1.23;;;33.90;48.10;;;;;;5108982;28;20028;-66
2023/09/06 12:11:20;;;;;;;1.58;0.95;;;34.00;47.80;;;;;;5109810;28;20043;-66
2023/09/06 12:13:46;;;;;;;2.00;1.38;;;34.00;47.70;;;;;;5109164;28;20501;-65
2023/09/06 12:16:12;;;;;;;1.33;1.20;;;34.00;47.70;;;;;;5110609;28;20031;-66
2023/09/06 12:18:38;;;;;;;1.35;1.02;;;34.00;47.10;;;;;;5108869;28;20032;-66
2023/09/06 12:21:05;;;;;;;0.82;0.73;;;34.10;46.50;;;;;;5109979;28;20019;-66
2023/09/06 12:23:32;;;;;;;0.73;0.73;;;34.20;46.70;;;;;;5105415;28;20032;-66
2023/09/06 12:26:02;;;;;;;1.98;0.95;;;34.40;46.60;;;;;;5110206;28;20073;-65
2023/09/06 12:28:29;;;;;;;1.17;1.00;;;34.50;46.40;;;;;;5108970;28;20032;-66
2023/09/06 12:31:02;;;;;;;1.23;1.15;;;34.50;45.90;;;;;;5108484;28;20044;-66
2023/09/06 12:33:28;;;;;;;1.30;1.20;;;34.60;45.40;;;;;;5109428;28;20068;-65
2023/09/06 12:36:05;;;;;;;1.20;1.10;;;34.60;45.20;;;;;;5109958;28;20028;-64
2023/09/06 12:38:32;;;;;;;1.05;0.73;;;34.60;44.70;;;;;;5108855;28;20475;-66
2023/09/06 12:40:59;;;;;;;1.10;1.02;;;34.70;44.70;;;;;;5107136;28;20522;-65
2023/09/06 12:43:26;;;;;;;1.20;1.05;;;34.70;44.10;;;;;;5107988;28;20032;-66
2023/09/06 12:45:57;;;;;;;0.95;0.90;;;34.70;44.00;;;;;;5110103;28;20034;-66
2023/09/06 12:48:23;;;;;;;1.20;1.10;;;34.80;43.90;;;;;;5108691;28;20047;-65
2023/09/06 12:50:53;;;;;;;1.23;1.13;;;34.90;43.10;;;;;;5105930;28;20596;-65
2023/09/06 12:53:19;;;;;;;1.30;1.20;;;35.00;43.30;;;;;;5108825;28;20031;-65
2023/09/06 12:55:47;;;;;;;1.15;1.05;;;35.00;43.30;;;;;;5110429;27;20110;-64